sensor_id;sensor_type;location;lat;lon;timestamp;P1;durP1;ratioP1;P2;durP2;ratioP2
40637;SDS011;26336;44.696;10.622;2023-03-03T00:00:58;48.80;;;31.33;;
40637;SDS011;26336;44.696;10.622;2023-03-03T00:04:02;46.80;;;30.17;;
40637;SDS011;26336;44.696;10.622;2023-03-03T00:07:06;48.17;;;31.10;;
40637;SDS011;26336;44.696;10.622;2023-03-03T00:10:10;47.33;;;30.73;;
40637;SDS011;26336;44.696;10.622;2023-03-03T00:13:16;46.13;;;29.80;;
40637;SDS011;26336;44.696;10.622;2023-03-03T00:16:23;49.63;;;30.67;;
40637;SDS011;26336;44.696;10.622;2023-03-03T00:19:30;46.30;;;29.63;;
40637;SDS011;26336;44.696;10.622;2023-03-03T00:22:41;47.37;;;31.53;;
40637;SDS011;26336;44.696;10.622;2023-03-03T00:25:45;42.90;;;28.50;;
40637;SDS011;26336;44.696;10.622;2023-03-03T00:28:53;42.07;;;28.03;;
40637;SDS011;26336;44.696;10.622;2023-03-03T00:35:23;44.55;;;29.98;;
40637;SDS011;26336;44.696;10.622;2023-03-03T00:38:29;45.20;;;30.90;;
40637;SDS011;26336;44.696;10.622;2023-03-03T00:41:40;49.10;;;30.13;;
40637;SDS011;26336;44.696;10.622;2023-03-03T00:44:45;47.67;;;30.60;;
40637;SDS011;26336;44.696;10.622;2023-03-03T00:47:50;45.83;;;30.27;;
40637;SDS011;26336;44.696;10.622;2023-03-03T00:50:55;46.37;;;30.53;;
40637;SDS011;26336;44.696;10.622;2023-03-03T00:54:02;46.70;;;30.97;;
40637;SDS011;26336;44.696;10.622;2023-03-03T00:57:06;45.80;;;30.03;;
40637;SDS011;26336;44.696;10.622;2023-03-03T01:00:12;43.57;;;29.63;;
40637;SDS011;26336;44.696;10.622;2023-03-03T01:03:21;47.50;;;31.60;;
40637;SDS011;26336;44.696;10.622;2023-03-03T01:06:27;49.80;;;31.17;;
40637;SDS011;26336;44.696;10.622;2023-03-03T01:09:33;51.03;;;33.00;;
40637;SDS011;26336;44.696;10.622;2023-03-03T01:12:38;48.57;;;30.57;;
40637;SDS011;26336;44.696;10.622;2023-03-03T01:15:42;49.73;;;33.40;;
40637;SDS011;26336;44.696;10.622;2023-03-03T01:18:46;46.60;;;29.83;;
40637;SDS011;26336;44.696;10.622;2023-03-03T01:21:51;56.23;;;35.10;;
40637;SDS011;26336;44.696;10.622;2023-03-03T01:24:55;54.93;;;33.87;;
40637;SDS011;26336;44.696;10.622;2023-03-03T01:27:59;52.97;;;34.43;;
40637;SDS011;26336;44.696;10.622;2023-03-03T01:31:03;60.50;;;36.90;;
40637;SDS011;26336;44.696;10.622;2023-03-03T01:34:08;56.53;;;36.00;;
40637;SDS011;26336;44.696;10.622;2023-03-03T01:37:12;57.77;;;35.40;;
40637;SDS011;26336;44.696;10.622;2023-03-03T01:40:19;53.70;;;33.20;;
40637;SDS011;26336;44.696;10.622;2023-03-03T01:43:30;51.25;;;32.83;;
40637;SDS011;26336;44.696;10.622;2023-03-03T01:46:40;51.17;;;32.00;;
40637;SDS011;26336;44.696;10.622;2023-03-03T01:49:51;48.22;;;30.92;;
40637;SDS011;26336;44.696;10.622;2023-03-03T01:53:02;46.07;;;30.60;;
40637;SDS011;26336;44.696;10.622;2023-03-03T01:56:09;46.60;;;29.60;;
40637;SDS011;26336;44.696;10.622;2023-03-03T01:59:19;42.93;;;29.23;;
40637;SDS011;26336;44.696;10.622;2023-03-03T02:02:27;45.03;;;30.65;;
40637;SDS011;26336;44.696;10.622;2023-03-03T02:05:32;49.83;;;31.77;;
40637;SDS011;26336;44.696;10.622;2023-03-03T02:08:46;45.13;;;29.57;;
40637;SDS011;26336;44.696;10.622;2023-03-03T02:11:53;45.63;;;28.47;;
40637;SDS011;26336;44.696;10.622;2023-03-03T02:15:17;45.70;;;28.67;;
40637;SDS011;26336;44.696;10.622;2023-03-03T02:18:29;44.67;;;28.07;;
40637;SDS011;26336;44.696;10.622;2023-03-03T02:21:33;45.60;;;28.90;;
40637;SDS011;26336;44.696;10.622;2023-03-03T02:27:47;47.67;;;28.77;;
40637;SDS011;26336;44.696;10.622;2023-03-03T02:30:55;44.77;;;27.70;;
40637;SDS011;26336;44.696;10.622;2023-03-03T02:34:00;43.93;;;29.07;;
40637;SDS011;26336;44.696;10.622;2023-03-03T02:37:04;40.03;;;25.60;;
40637;SDS011;26336;44.696;10.622;2023-03-03T02:40:09;42.47;;;26.60;;
40637;SDS011;26336;44.696;10.622;2023-03-03T02:43:16;41.03;;;24.30;;
40637;SDS011;26336;44.696;10.622;2023-03-03T02:46:22;39.63;;;25.43;;
40637;SDS011;26336;44.696;10.622;2023-03-03T02:49:30;41.17;;;25.83;;
40637;SDS011;26336;44.696;10.622;2023-03-03T02:52:36;38.23;;;25.13;;
40637;SDS011;26336;44.696;10.622;2023-03-03T02:55:40;42.70;;;26.57;;
40637;SDS011;26336;44.696;10.622;2023-03-03T02:58:44;38.90;;;24.93;;
40637;SDS011;26336;44.696;10.622;2023-03-03T03:01:49;35.87;;;24.33;;
40637;SDS011;26336;44.696;10.622;2023-03-03T03:04:55;38.17;;;24.50;;
40637;SDS011;26336;44.696;10.622;2023-03-03T03:08:01;35.37;;;24.50;;
40637;SDS011;26336;44.696;10.622;2023-03-03T03:11:07;34.70;;;23.83;;
40637;SDS011;26336;44.696;10.622;2023-03-03T03:14:12;36.83;;;23.80;;
40637;SDS011;26336;44.696;10.622;2023-03-03T03:17:18;35.93;;;24.40;;
40637;SDS011;26336;44.696;10.622;2023-03-03T03:20:22;34.73;;;23.87;;
40637;SDS011;26336;44.696;10.622;2023-03-03T03:23:26;35.70;;;24.77;;
40637;SDS011;26336;44.696;10.622;2023-03-03T03:26:30;34.93;;;23.13;;
40637;SDS011;26336;44.696;10.622;2023-03-03T03:29:35;34.70;;;23.17;;
40637;SDS011;26336;44.696;10.622;2023-03-03T03:32:40;36.33;;;23.37;;
40637;SDS011;26336;44.696;10.622;2023-03-03T03:35:45;35.33;;;22.27;;
40637;SDS011;26336;44.696;10.622;2023-03-03T03:38:51;39.03;;;24.03;;
40637;SDS011;26336;44.696;10.622;2023-03-03T03:41:56;34.93;;;23.33;;
40637;SDS011;26336;44.696;10.622;2023-03-03T03:45:00;36.00;;;23.47;;
40637;SDS011;26336;44.696;10.622;2023-03-03T03:48:04;35.67;;;23.07;;
40637;SDS011;26336;44.696;10.622;2023-03-03T03:51:10;39.43;;;22.30;;
40637;SDS011;26336;44.696;10.622;2023-03-03T03:54:15;35.60;;;23.23;;
40637;SDS011;26336;44.696;10.622;2023-03-03T03:57:20;37.07;;;23.83;;
40637;SDS011;26336;44.696;10.622;2023-03-03T04:00:24;37.30;;;24.10;;
40637;SDS011;26336;44.696;10.622;2023-03-03T04:03:33;36.73;;;23.43;;
40637;SDS011;26336;44.696;10.622;2023-03-03T04:06:41;36.97;;;23.53;;
40637;SDS011;26336;44.696;10.622;2023-03-03T04:09:45;38.13;;;24.80;;
40637;SDS011;26336;44.696;10.622;2023-03-03T04:12:49;35.73;;;23.23;;
40637;SDS011;26336;44.696;10.622;2023-03-03T04:15:53;35.80;;;22.80;;
40637;SDS011;26336;44.696;10.622;2023-03-03T04:18:57;37.33;;;25.20;;
40637;SDS011;26336;44.696;10.622;2023-03-03T04:22:02;37.43;;;23.73;;
40637;SDS011;26336;44.696;10.622;2023-03-03T04:25:07;38.43;;;23.67;;
40637;SDS011;26336;44.696;10.622;2023-03-03T04:28:18;38.20;;;23.87;;
40637;SDS011;26336;44.696;10.622;2023-03-03T04:31:23;34.47;;;21.53;;
40637;SDS011;26336;44.696;10.622;2023-03-03T04:34:28;40.17;;;23.33;;
40637;SDS011;26336;44.696;10.622;2023-03-03T04:37:33;35.90;;;23.50;;
40637;SDS011;26336;44.696;10.622;2023-03-03T04:40:41;37.77;;;23.93;;
40637;SDS011;26336;44.696;10.622;2023-03-03T04:43:46;38.37;;;23.03;;
40637;SDS011;26336;44.696;10.622;2023-03-03T04:46:50;33.97;;;21.47;;
40637;SDS011;26336;44.696;10.622;2023-03-03T04:49:56;33.30;;;23.07;;
40637;SDS011;26336;44.696;10.622;2023-03-03T04:53:00;37.50;;;23.57;;
40637;SDS011;26336;44.696;10.622;2023-03-03T04:56:05;34.57;;;22.67;;
40637;SDS011;26336;44.696;10.622;2023-03-03T04:59:09;30.47;;;21.13;;
40637;SDS011;26336;44.696;10.622;2023-03-03T05:02:14;35.20;;;21.20;;
40637;SDS011;26336;44.696;10.622;2023-03-03T05:05:18;32.70;;;21.83;;
40637;SDS011;26336;44.696;10.622;2023-03-03T05:08:23;31.50;;;20.33;;
40637;SDS011;26336;44.696;10.622;2023-03-03T05:11:27;33.70;;;21.97;;
40637;SDS011;26336;44.696;10.622;2023-03-03T05:14:31;32.50;;;20.53;;
40637;SDS011;26336;44.696;10.622;2023-03-03T05:17:35;28.67;;;19.77;;
40637;SDS011;26336;44.696;10.622;2023-03-03T05:20:39;32.83;;;20.33;;
40637;SDS011;26336;44.696;10.622;2023-03-03T05:23:44;31.47;;;20.87;;
40637;SDS011;26336;44.696;10.622;2023-03-03T05:26:48;30.83;;;19.80;;
40637;SDS011;26336;44.696;10.622;2023-03-03T05:29:52;32.67;;;20.77;;
40637;SDS011;26336;44.696;10.622;2023-03-03T05:32:56;34.43;;;21.10;;
40637;SDS011;26336;44.696;10.622;2023-03-03T05:36:02;30.20;;;19.60;;
40637;SDS011;26336;44.696;10.622;2023-03-03T05:39:06;28.63;;;19.80;;
40637;SDS011;26336;44.696;10.622;2023-03-03T05:42:11;33.63;;;20.83;;
40637;SDS011;26336;44.696;10.622;2023-03-03T05:45:16;30.30;;;19.70;;
40637;SDS011;26336;44.696;10.622;2023-03-03T05:48:22;31.73;;;20.53;;
40637;SDS011;26336;44.696;10.622;2023-03-03T05:51:26;40.27;;;23.77;;
40637;SDS011;26336;44.696;10.622;2023-03-03T05:54:30;39.47;;;21.97;;
40637;SDS011;26336;44.696;10.622;2023-03-03T05:57:34;40.43;;;22.37;;
40637;SDS011;26336;44.696;10.622;2023-03-03T06:00:39;39.77;;;23.93;;
40637;SDS011;26336;44.696;10.622;2023-03-03T06:03:43;36.63;;;21.73;;
40637;SDS011;26336;44.696;10.622;2023-03-03T06:06:46;35.97;;;21.83;;
40637;SDS011;26336;44.696;10.622;2023-03-03T06:09:50;45.77;;;26.33;;
40637;SDS011;26336;44.696;10.622;2023-03-03T06:12:55;50.37;;;28.60;;
40637;SDS011;26336;44.696;10.622;2023-03-03T06:16:01;71.90;;;37.40;;
40637;SDS011;26336;44.696;10.622;2023-03-03T06:19:05;71.83;;;39.70;;
40637;SDS011;26336;44.696;10.622;2023-03-03T06:22:09;75.50;;;41.03;;
40637;SDS011;26336;44.696;10.622;2023-03-03T06:25:13;66.00;;;37.03;;
40637;SDS011;26336;44.696;10.622;2023-03-03T06:28:17;61.57;;;35.70;;
40637;SDS011;26336;44.696;10.622;2023-03-03T06:31:21;44.13;;;26.60;;
40637;SDS011;26336;44.696;10.622;2023-03-03T06:34:25;47.53;;;27.27;;
40637;SDS011;26336;44.696;10.622;2023-03-03T06:37:29;44.97;;;26.57;;
40637;SDS011;26336;44.696;10.622;2023-03-03T06:40:34;36.83;;;23.37;;
40637;SDS011;26336;44.696;10.622;2023-03-03T06:43:38;31.87;;;20.80;;
40637;SDS011;26336;44.696;10.622;2023-03-03T06:46:41;35.23;;;20.40;;
40637;SDS011;26336;44.696;10.622;2023-03-03T06:49:46;30.30;;;20.53;;
40637;SDS011;26336;44.696;10.622;2023-03-03T06:53:11;34.53;;;21.70;;
40637;SDS011;26336;44.696;10.622;2023-03-03T06:56:17;36.27;;;22.67;;
40637;SDS011;26336;44.696;10.622;2023-03-03T06:59:21;39.63;;;23.83;;
40637;SDS011;26336;44.696;10.622;2023-03-03T07:02:25;33.03;;;23.03;;
40637;SDS011;26336;44.696;10.622;2023-03-03T07:05:29;32.50;;;21.90;;
40637;SDS011;26336;44.696;10.622;2023-03-03T07:08:33;38.03;;;23.23;;
40637;SDS011;26336;44.696;10.622;2023-03-03T07:11:38;35.43;;;22.30;;
40637;SDS011;26336;44.696;10.622;2023-03-03T07:14:44;34.73;;;23.37;;
40637;SDS011;26336;44.696;10.622;2023-03-03T07:17:51;33.83;;;22.77;;
40637;SDS011;26336;44.696;10.622;2023-03-03T07:24:39;38.43;;;22.43;;
40637;SDS011;26336;44.696;10.622;2023-03-03T07:27:45;38.67;;;23.00;;
40637;SDS011;26336;44.696;10.622;2023-03-03T07:30:50;36.60;;;23.57;;
40637;SDS011;26336;44.696;10.622;2023-03-03T07:33:58;34.47;;;23.03;;
40637;SDS011;26336;44.696;10.622;2023-03-03T07:40:34;41.43;;;23.53;;
40637;SDS011;26336;44.696;10.622;2023-03-03T07:44:24;35.47;;;23.23;;
40637;SDS011;26336;44.696;10.622;2023-03-03T07:47:30;35.60;;;23.23;;
40637;SDS011;26336;44.696;10.622;2023-03-03T07:50:38;38.17;;;24.90;;
40637;SDS011;26336;44.696;10.622;2023-03-03T07:53:44;41.73;;;25.40;;
40637;SDS011;26336;44.696;10.622;2023-03-03T07:56:49;39.23;;;25.27;;
40637;SDS011;26336;44.696;10.622;2023-03-03T08:00:00;38.53;;;24.30;;
40637;SDS011;26336;44.696;10.622;2023-03-03T08:03:24;35.87;;;23.50;;
40637;SDS011;26336;44.696;10.622;2023-03-03T08:09:45;37.03;;;24.47;;
40637;SDS011;26336;44.696;10.622;2023-03-03T08:12:54;35.43;;;25.20;;
40637;SDS011;26336;44.696;10.622;2023-03-03T08:19:11;42.15;;;24.42;;
40637;SDS011;26336;44.696;10.622;2023-03-03T08:22:27;42.33;;;24.43;;
40637;SDS011;26336;44.696;10.622;2023-03-03T08:25:36;40.50;;;26.20;;
40637;SDS011;26336;44.696;10.622;2023-03-03T08:28:41;46.77;;;26.73;;
40637;SDS011;26336;44.696;10.622;2023-03-03T08:31:45;44.07;;;27.40;;
40637;SDS011;26336;44.696;10.622;2023-03-03T08:34:49;42.13;;;27.63;;
40637;SDS011;26336;44.696;10.622;2023-03-03T08:37:53;47.53;;;29.73;;
40637;SDS011;26336;44.696;10.622;2023-03-03T08:40:46;42.33;;;27.25;;
40637;SDS011;26336;44.696;10.622;2023-03-03T08:43:50;47.57;;;29.57;;
40637;SDS011;26336;44.696;10.622;2023-03-03T08:46:54;46.90;;;29.40;;
40637;SDS011;26336;44.696;10.622;2023-03-03T08:49:58;47.87;;;30.17;;
40637;SDS011;26336;44.696;10.622;2023-03-03T08:53:02;55.93;;;35.13;;
40637;SDS011;26336;44.696;10.622;2023-03-03T08:56:06;56.60;;;34.73;;
40637;SDS011;26336;44.696;10.622;2023-03-03T08:59:10;55.37;;;33.23;;
40637;SDS011;26336;44.696;10.622;2023-03-03T09:02:15;55.90;;;33.13;;
40637;SDS011;26336;44.696;10.622;2023-03-03T09:05:20;53.70;;;33.43;;
40637;SDS011;26336;44.696;10.622;2023-03-03T09:08:25;56.33;;;34.07;;
40637;SDS011;26336;44.696;10.622;2023-03-03T09:11:29;54.37;;;33.77;;
40637;SDS011;26336;44.696;10.622;2023-03-03T09:14:34;57.10;;;34.53;;
40637;SDS011;26336;44.696;10.622;2023-03-03T09:17:38;56.27;;;34.87;;
40637;SDS011;26336;44.696;10.622;2023-03-03T09:20:47;55.50;;;35.33;;
40637;SDS011;26336;44.696;10.622;2023-03-03T09:23:55;54.23;;;33.97;;
40637;SDS011;26336;44.696;10.622;2023-03-03T09:27:01;53.23;;;33.40;;
40637;SDS011;26336;44.696;10.622;2023-03-03T09:33:28;53.73;;;32.67;;
40637;SDS011;26336;44.696;10.622;2023-03-03T09:36:41;51.87;;;32.83;;
40637;SDS011;26336;44.696;10.622;2023-03-03T09:39:46;47.40;;;31.87;;
40637;SDS011;26336;44.696;10.622;2023-03-03T09:57:09;47.47;;;30.33;;
40637;SDS011;26336;44.696;10.622;2023-03-03T10:00:27;45.15;;;29.60;;
40637;SDS011;26336;44.696;10.622;2023-03-03T10:16:47;40.72;;;26.83;;
40637;SDS011;26336;44.696;10.622;2023-03-03T10:23:23;34.10;;;24.73;;
40637;SDS011;26336;44.696;10.622;2023-03-03T10:33:18;39.85;;;27.15;;
40637;SDS011;26336;44.696;10.622;2023-03-03T10:53:32;34.08;;;22.35;;
40637;SDS011;26336;44.696;10.622;2023-03-03T11:03:33;28.13;;;18.63;;
40637;SDS011;26336;44.696;10.622;2023-03-03T11:07:02;26.52;;;16.08;;
40637;SDS011;26336;44.696;10.622;2023-03-03T11:21:02;26.42;;;18.70;;
40637;SDS011;26336;44.696;10.622;2023-03-03T11:31:23;26.27;;;15.98;;
40637;SDS011;26336;44.696;10.622;2023-03-03T11:41:30;22.37;;;15.10;;
40637;SDS011;26336;44.696;10.622;2023-03-03T11:45:25;20.55;;;13.68;;
40637;SDS011;26336;44.696;10.622;2023-03-03T11:52:04;24.42;;;16.42;;
40637;SDS011;26336;44.696;10.622;2023-03-03T11:55:44;24.40;;;16.17;;
40637;SDS011;26336;44.696;10.622;2023-03-03T12:02:14;26.33;;;17.38;;
40637;SDS011;26336;44.696;10.622;2023-03-03T12:05:37;25.77;;;16.02;;
40637;SDS011;26336;44.696;10.622;2023-03-03T12:12:28;26.40;;;17.58;;
40637;SDS011;26336;44.696;10.622;2023-03-03T12:15:48;27.10;;;16.88;;
40637;SDS011;26336;44.696;10.622;2023-03-03T12:19:12;25.02;;;16.00;;
40637;SDS011;26336;44.696;10.622;2023-03-03T12:36:38;21.77;;;15.18;;
40637;SDS011;26336;44.696;10.622;2023-03-03T12:50:29;18.90;;;12.15;;
40637;SDS011;26336;44.696;10.622;2023-03-03T13:00:45;21.83;;;15.55;;
40637;SDS011;26336;44.696;10.622;2023-03-03T13:07:44;21.23;;;14.70;;
40637;SDS011;26336;44.696;10.622;2023-03-03T13:17:55;22.40;;;14.95;;
40637;SDS011;26336;44.696;10.622;2023-03-03T13:21:28;24.77;;;15.80;;
40637;SDS011;26336;44.696;10.622;2023-03-03T13:28:20;24.60;;;16.63;;
40637;SDS011;26336;44.696;10.622;2023-03-03T13:31:47;21.38;;;15.25;;
40637;SDS011;26336;44.696;10.622;2023-03-03T13:35:05;27.13;;;17.33;;
40637;SDS011;26336;44.696;10.622;2023-03-03T13:41:51;15.10;;;10.43;;
40637;SDS011;26336;44.696;10.622;2023-03-03T14:03:01;24.77;;;16.30;;
40637;SDS011;26336;44.696;10.622;2023-03-03T14:06:26;22.20;;;14.32;;
40637;SDS011;26336;44.696;10.622;2023-03-03T14:09:38;23.08;;;15.40;;
40637;SDS011;26336;44.696;10.622;2023-03-03T14:12:59;23.15;;;16.13;;
40637;SDS011;26336;44.696;10.622;2023-03-03T14:16:18;28.25;;;17.75;;
40637;SDS011;26336;44.696;10.622;2023-03-03T14:19:36;23.48;;;17.20;;
40637;SDS011;26336;44.696;10.622;2023-03-03T14:22:57;29.00;;;18.63;;
40637;SDS011;26336;44.696;10.622;2023-03-03T14:26:11;25.55;;;17.38;;
40637;SDS011;26336;44.696;10.622;2023-03-03T14:36:41;24.67;;;15.63;;
40637;SDS011;26336;44.696;10.622;2023-03-03T14:39:59;26.10;;;18.40;;
40637;SDS011;26336;44.696;10.622;2023-03-03T14:46:30;27.75;;;17.75;;
40637;SDS011;26336;44.696;10.622;2023-03-03T14:49:37;19.63;;;12.95;;
40637;SDS011;26336;44.696;10.622;2023-03-03T14:52:42;21.58;;;14.48;;
40637;SDS011;26336;44.696;10.622;2023-03-03T14:55:46;18.95;;;12.05;;
40637;SDS011;26336;44.696;10.622;2023-03-03T14:58:53;18.08;;;12.43;;
40637;SDS011;26336;44.696;10.622;2023-03-03T15:05:25;18.95;;;12.73;;
40637;SDS011;26336;44.696;10.622;2023-03-03T15:08:32;24.02;;;14.13;;
40637;SDS011;26336;44.696;10.622;2023-03-03T15:11:37;22.45;;;14.80;;
40637;SDS011;26336;44.696;10.622;2023-03-03T15:14:43;20.42;;;14.15;;
40637;SDS011;26336;44.696;10.622;2023-03-03T15:24:23;24.00;;;15.10;;
40637;SDS011;26336;44.696;10.622;2023-03-03T15:27:35;26.98;;;15.15;;
40637;SDS011;26336;44.696;10.622;2023-03-03T15:30:47;22.10;;;15.68;;
40637;SDS011;26336;44.696;10.622;2023-03-03T15:37:48;42.70;;;18.50;;
40637;SDS011;26336;44.696;10.622;2023-03-03T15:47:51;25.70;;;17.50;;
40637;SDS011;26336;44.696;10.622;2023-03-03T15:51:05;32.22;;;19.27;;
40637;SDS011;26336;44.696;10.622;2023-03-03T15:58:34;23.48;;;17.38;;
40637;SDS011;26336;44.696;10.622;2023-03-03T16:01:34;24.90;;;17.20;;
40637;SDS011;26336;44.696;10.622;2023-03-03T16:04:38;24.65;;;17.58;;
40637;SDS011;26336;44.696;10.622;2023-03-03T16:08:07;28.85;;;17.30;;
40637;SDS011;26336;44.696;10.622;2023-03-03T16:11:29;25.20;;;17.40;;
40637;SDS011;26336;44.696;10.622;2023-03-03T16:18:26;25.70;;;18.75;;
40637;SDS011;26336;44.696;10.622;2023-03-03T16:28:33;27.23;;;17.27;;
40637;SDS011;26336;44.696;10.622;2023-03-03T16:38:37;26.23;;;18.00;;
40637;SDS011;26336;44.696;10.622;2023-03-03T16:41:48;27.45;;;18.08;;
40637;SDS011;26336;44.696;10.622;2023-03-03T16:48:21;24.20;;;16.63;;
40637;SDS011;26336;44.696;10.622;2023-03-03T16:55:15;25.98;;;17.73;;
40637;SDS011;26336;44.696;10.622;2023-03-03T16:58:44;23.85;;;16.63;;
40637;SDS011;26336;44.696;10.622;2023-03-03T17:02:01;25.27;;;16.33;;
40637;SDS011;26336;44.696;10.622;2023-03-03T17:18:55;27.45;;;17.67;;
40637;SDS011;26336;44.696;10.622;2023-03-03T17:41:44;28.30;;;18.65;;
40637;SDS011;26336;44.696;10.622;2023-03-03T17:48:26;28.08;;;18.13;;
40637;SDS011;26336;44.696;10.622;2023-03-03T17:51:54;25.98;;;18.08;;
40637;SDS011;26336;44.696;10.622;2023-03-03T18:08:47;29.15;;;19.63;;
40637;SDS011;26336;44.696;10.622;2023-03-03T18:18:51;29.88;;;18.80;;
40637;SDS011;26336;44.696;10.622;2023-03-03T18:25:53;29.17;;;19.63;;
40637;SDS011;26336;44.696;10.622;2023-03-03T18:29:11;28.20;;;20.33;;
40637;SDS011;26336;44.696;10.622;2023-03-03T18:32:20;28.95;;;20.77;;
40637;SDS011;26336;44.696;10.622;2023-03-03T18:35:31;31.25;;;22.05;;
40637;SDS011;26336;44.696;10.622;2023-03-03T18:38:37;28.75;;;20.73;;
40637;SDS011;26336;44.696;10.622;2023-03-03T18:48:43;27.23;;;20.57;;
40637;SDS011;26336;44.696;10.622;2023-03-03T18:52:16;33.23;;;21.80;;
40637;SDS011;26336;44.696;10.622;2023-03-03T18:55:40;33.10;;;22.70;;
40637;SDS011;26336;44.696;10.622;2023-03-03T18:58:50;32.17;;;23.55;;
40637;SDS011;26336;44.696;10.622;2023-03-03T19:01:54;31.15;;;22.48;;
40637;SDS011;26336;44.696;10.622;2023-03-03T19:05:18;36.03;;;23.73;;
40637;SDS011;26336;44.696;10.622;2023-03-03T19:11:56;33.38;;;22.25;;
40637;SDS011;26336;44.696;10.622;2023-03-03T19:15:00;36.37;;;22.93;;
40637;SDS011;26336;44.696;10.622;2023-03-03T19:21:30;38.95;;;23.95;;
40637;SDS011;26336;44.696;10.622;2023-03-03T19:24:36;31.50;;;22.77;;
40637;SDS011;26336;44.696;10.622;2023-03-03T19:27:55;30.40;;;20.97;;
40637;SDS011;26336;44.696;10.622;2023-03-03T19:31:28;30.73;;;22.27;;
40637;SDS011;26336;44.696;10.622;2023-03-03T19:35:07;31.83;;;21.55;;
40637;SDS011;26336;44.696;10.622;2023-03-03T19:38:25;29.87;;;21.07;;
40637;SDS011;26336;44.696;10.622;2023-03-03T20:05:07;27.40;;;18.97;;
40637;SDS011;26336;44.696;10.622;2023-03-03T20:08:20;30.63;;;19.77;;
40637;SDS011;26336;44.696;10.622;2023-03-03T20:11:46;29.87;;;21.20;;
40637;SDS011;26336;44.696;10.622;2023-03-03T20:15:18;28.90;;;19.83;;
40637;SDS011;26336;44.696;10.622;2023-03-03T20:18:38;29.70;;;21.53;;
40637;SDS011;26336;44.696;10.622;2023-03-03T20:32:14;31.27;;;21.50;;
40637;SDS011;26336;44.696;10.622;2023-03-03T20:42:19;52.57;;;32.27;;
40637;SDS011;26336;44.696;10.622;2023-03-03T20:45:32;46.53;;;30.08;;
40637;SDS011;26336;44.696;10.622;2023-03-03T20:53:01;41.97;;;26.73;;
40637;SDS011;26336;44.696;10.622;2023-03-03T21:00:16;37.47;;;26.17;;
40637;SDS011;26336;44.696;10.622;2023-03-03T21:03:42;39.73;;;27.23;;
40637;SDS011;26336;44.696;10.622;2023-03-03T21:06:48;38.77;;;26.73;;
40637;SDS011;26336;44.696;10.622;2023-03-03T21:10:10;32.73;;;24.27;;
40637;SDS011;26336;44.696;10.622;2023-03-03T21:13:26;38.87;;;26.10;;
40637;SDS011;26336;44.696;10.622;2023-03-03T21:16:39;37.03;;;25.97;;
40637;SDS011;26336;44.696;10.622;2023-03-03T21:19:43;34.17;;;23.80;;
40637;SDS011;26336;44.696;10.622;2023-03-03T21:22:47;36.40;;;24.17;;
40637;SDS011;26336;44.696;10.622;2023-03-03T21:25:53;36.37;;;23.73;;
40637;SDS011;26336;44.696;10.622;2023-03-03T21:28:58;31.70;;;22.97;;
40637;SDS011;26336;44.696;10.622;2023-03-03T21:32:04;32.37;;;23.07;;
40637;SDS011;26336;44.696;10.622;2023-03-03T21:38:30;45.07;;;25.37;;
40637;SDS011;26336;44.696;10.622;2023-03-03T21:41:52;35.17;;;24.20;;
40637;SDS011;26336;44.696;10.622;2023-03-03T21:45:08;35.10;;;24.07;;
40637;SDS011;26336;44.696;10.622;2023-03-03T21:48:16;36.50;;;24.43;;
40637;SDS011;26336;44.696;10.622;2023-03-03T21:51:20;37.37;;;25.23;;
40637;SDS011;26336;44.696;10.622;2023-03-03T21:54:26;38.40;;;24.77;;
40637;SDS011;26336;44.696;10.622;2023-03-03T21:57:30;37.53;;;23.00;;
40637;SDS011;26336;44.696;10.622;2023-03-03T22:00:34;29.53;;;20.90;;
40637;SDS011;26336;44.696;10.622;2023-03-03T22:03:38;32.93;;;22.30;;
40637;SDS011;26336;44.696;10.622;2023-03-03T22:06:43;35.40;;;23.03;;
40637;SDS011;26336;44.696;10.622;2023-03-03T22:09:47;36.57;;;23.77;;
40637;SDS011;26336;44.696;10.622;2023-03-03T22:12:51;36.53;;;24.20;;
40637;SDS011;26336;44.696;10.622;2023-03-03T22:15:55;34.37;;;24.03;;
40637;SDS011;26336;44.696;10.622;2023-03-03T22:19:05;34.30;;;24.13;;
40637;SDS011;26336;44.696;10.622;2023-03-03T22:22:15;34.90;;;24.17;;
40637;SDS011;26336;44.696;10.622;2023-03-03T22:25:19;31.93;;;23.10;;
40637;SDS011;26336;44.696;10.622;2023-03-03T22:28:22;39.13;;;25.83;;
40637;SDS011;26336;44.696;10.622;2023-03-03T22:31:26;36.43;;;24.97;;
40637;SDS011;26336;44.696;10.622;2023-03-03T22:34:30;36.03;;;25.50;;
40637;SDS011;26336;44.696;10.622;2023-03-03T22:37:34;39.03;;;27.00;;
40637;SDS011;26336;44.696;10.622;2023-03-03T22:40:38;40.47;;;26.80;;
40637;SDS011;26336;44.696;10.622;2023-03-03T22:43:42;34.57;;;25.07;;
40637;SDS011;26336;44.696;10.622;2023-03-03T22:46:46;41.83;;;29.00;;
40637;SDS011;26336;44.696;10.622;2023-03-03T22:49:50;45.90;;;30.77;;
40637;SDS011;26336;44.696;10.622;2023-03-03T22:52:54;50.53;;;31.60;;
40637;SDS011;26336;44.696;10.622;2023-03-03T22:55:58;48.27;;;31.07;;
40637;SDS011;26336;44.696;10.622;2023-03-03T22:59:02;45.73;;;28.47;;
40637;SDS011;26336;44.696;10.622;2023-03-03T23:02:06;39.40;;;26.73;;
40637;SDS011;26336;44.696;10.622;2023-03-03T23:05:10;37.03;;;27.27;;
40637;SDS011;26336;44.696;10.622;2023-03-03T23:08:15;46.67;;;29.87;;
40637;SDS011;26336;44.696;10.622;2023-03-03T23:11:23;41.00;;;29.20;;
40637;SDS011;26336;44.696;10.622;2023-03-03T23:14:29;46.43;;;30.00;;
40637;SDS011;26336;44.696;10.622;2023-03-03T23:17:33;40.10;;;28.60;;
40637;SDS011;26336;44.696;10.622;2023-03-03T23:20:37;41.90;;;28.50;;
40637;SDS011;26336;44.696;10.622;2023-03-03T23:23:41;40.53;;;27.53;;
40637;SDS011;26336;44.696;10.622;2023-03-03T23:26:45;39.50;;;26.53;;
40637;SDS011;26336;44.696;10.622;2023-03-03T23:29:49;44.40;;;29.03;;
40637;SDS011;26336;44.696;10.622;2023-03-03T23:32:54;41.33;;;29.13;;
40637;SDS011;26336;44.696;10.622;2023-03-03T23:35:58;41.57;;;28.23;;
40637;SDS011;26336;44.696;10.622;2023-03-03T23:39:02;39.13;;;26.80;;
40637;SDS011;26336;44.696;10.622;2023-03-03T23:42:07;38.90;;;26.97;;
40637;SDS011;26336;44.696;10.622;2023-03-03T23:45:11;39.63;;;25.40;;
40637;SDS011;26336;44.696;10.622;2023-03-03T23:48:16;35.40;;;25.80;;
40637;SDS011;26336;44.696;10.622;2023-03-03T23:51:19;39.00;;;26.83;;
40637;SDS011;26336;44.696;10.622;2023-03-03T23:54:24;41.10;;;26.97;;
40637;SDS011;26336;44.696;10.622;2023-03-03T23:57:27;38.73;;;27.27;;
